Meteo Giornale » Osservazioni meteo Stati Uniti (USA) » Jefferson City
ore: 21:53 - Osservazioni Meteo Jefferson City
Lat. 38° 35' N Lon. 92° 9' W Alt. 167 metri s.l.m.
28 °C
Sereno
Temp. 24 Ore
20 °C
37 °C
Est/Sud-Est
7.4 Km/h
Dew point 21 °C
Umidità 65 %
Visibilità 10 Km
Il sole sorge alle ore 06:37
Il sole tramonta alle ore 19:40
| Data e Ora | Cielo e Fenomeni | T °C | DP °C | Um. % | Pres. hPa | Vis. km | Vento km/h | |
|---|---|---|---|---|---|---|---|---|
| Oggi h: 21:53 | Sereno | 28 | 21 | 65 | 1015 | 10 | E/SE 7.4 | |
| Oggi h: 20:53 | Sereno | 27 | 22 | 74 | 1014 | 10 | SE 11.1 | |
| Oggi h: 19:53 | Sereno | 29 | 22 | 66 | 1014 | 10 | E/SE 9.3 | |
| Oggi h: 18:53 | Sereno | 34 | 20 | 43 | 1013 | 10 | N 0 | |
| Oggi h: 17:53 | Sereno | 36 | 19 | 36 | 1013 | 10 | S/SE 9.3 | |
| Oggi h: 16:53 | Sereno | 37 | 18 | 32 | 1013 | 10 | S 7.4 | |
| Oggi h: 15:53 | Sereno | 37 | 18 | 32 | 1014 | 10 | S/SO 14.8 | |
| Oggi h: 14:53 | Sereno | 36 | 19 | 36 | 1014 | 10 | S 13 | |
| Oggi h: 13:53 | Sereno | 36 | 19 | 36 | 1015 | 10 | S/SO 9.3 | |
| Oggi h: 12:53 | Sereno | 35 | 19 | 39 | 1015 | 10 | O/SO 14.8 | |
| Oggi h: 11:53 | Sereno | 33 | 20 | 46 | 1016 | 10 | SO 16.7 | |
| Oggi h: 10:53 | Sereno | 32 | 19 | 46 | 1016 | 10 | O/SO 9.3 | |
| Oggi h: 09:53 | Sereno | 29 | 19 | 54 | 1016 | 10 | N 5.5 | |
| Oggi h: 08:53 | Sereno | 26 | 19 | 65 | 1017 | 10 | N 0 | |
| Oggi h: 07:53 | Sereno | 23 | 18 | 73 | 1016 | 10 | E/SE 9.3 | |
| Oggi h: 06:53 | Sereno | 20 | 17 | 82 | 1016 | 10 | SE 9.3 | |
| Oggi h: 05:53 | Sereno | 23 | 16 | 64 | 1015 | 10 | E/SE 7.4 | |
| Oggi h: 04:53 | Sereno | 24 | 17 | 64 | 1015 | 10 | E 7.4 | |
| Oggi h: 03:53 | Sereno | 25 | 17 | 61 | 1015 | 10 | N 5.5 | |
| Oggi h: 02:53 | Sereno | 24 | 17 | 64 | 1014 | 10 | N 5.5 | |
| Oggi h: 01:53 | Sereno | 25 | 17 | 61 | 1015 | 10 | N 5.5 | |
| Oggi h: 00:53 | Sereno | 26 | 18 | 61 | 1015 | 10 | E 7.4 | |
| Ieri h: 23:53 | Sereno | 26 | 19 | 65 | 1014 | 10 | E 7.4 | |
| Ieri h: 22:53 | Sereno | 26 | 20 | 69 | 1014 | 10 | E 9.3 | |



